Time;durP1;ratioP1;P1;durP2;ratioP2;P2;SDS_P1;SDS_P2;PMS_P1;PMS_P2;Temp;Humidity;BMP_temperature;BMP_pressure;BME280_temperature;BME280_humidity;BME280_pressure;Samples;Min_cycle;Max_cycle;Signal;HPM_P1;HPM_P2
2023/05/14 00:01:17;;;;;;;9.47;6.07;;;;;;;;;;5056152;28;20281;-67
2023/05/14 00:03:42;;;;;;;8.77;5.67;;;;;;;;;;5056534;28;20032;-67
2023/05/14 00:06:09;;;;;;;10.27;5.77;;;;;;;;;;5056866;28;20648;-68
2023/05/14 00:08:34;;;;;;;8.95;5.47;;;;;;;;;;5060618;28;20013;-67
2023/05/14 00:11:00;;;;;;;8.82;5.68;;;;;;;;;;5054702;28;20025;-67
2023/05/14 00:13:25;;;;;;;9.60;5.77;;;;;;;;;;5055946;28;20052;-67
2023/05/14 00:15:50;;;;;;;8.70;5.60;;;;;;;;;;5059546;28;20040;-68
2023/05/14 00:18:15;;;;;;;11.23;5.73;;;;;;;;;;5059079;28;20478;-72
2023/05/14 00:20:41;;;;;;;10.20;5.00;;;;;;;;;;5056042;28;20278;-71
2023/05/14 00:23:06;;;;;;;10.32;5.50;;;;;;;;;;5058585;28;20033;-72
2023/05/14 00:25:31;;;;;;;9.52;5.38;;;;;;;;;;5058091;28;20038;-71
2023/05/14 00:27:57;;;;;;;7.77;5.73;;;;;;;;;;5054800;28;20425;-72
2023/05/14 00:30:22;;;;;;;9.83;5.47;;;;;;;;;;5057702;28;20043;-72
2023/05/14 00:32:47;;;;;;;8.50;4.73;;;;;;;;;;5059253;28;20029;-72
2023/05/14 00:35:12;;;;;;;6.90;5.07;;;;;;;;;;5067583;28;20088;-73
2023/05/14 00:37:38;;;;;;;7.33;5.70;;;;;;;;;;5066992;28;20277;-71
2023/05/14 00:40:05;;;;;;;7.60;5.70;;;;;;;;;;5065625;28;20043;-72
2023/05/14 00:42:30;;;;;;;8.40;5.53;;;;;;;;;;5065358;28;20048;-72
2023/05/14 00:44:56;;;;;;;8.90;5.63;;;;;;;;;;5056917;28;20024;-72
2023/05/14 00:47:21;;;;;;;9.27;5.37;;;;;;;;;;5056751;28;20043;-72
2023/05/14 00:49:46;;;;;;;10.45;5.90;;;;;;;;;;5057433;28;20032;-71
2023/05/14 00:52:11;;;;;;;9.33;5.30;;;;;;;;;;5055580;28;20029;-72
2023/05/14 00:54:37;;;;;;;8.38;5.35;;;;;;;;;;5054237;28;20707;-72
2023/05/14 00:57:03;;;;;;;13.15;6.05;;;;;;;;;;5057294;28;20085;-72
2023/05/14 00:59:29;;;;;;;10.63;5.70;;;;;;;;;;5055728;28;20038;-72
2023/05/14 01:01:54;;;;;;;8.50;5.50;;;;;;;;;;5054124;28;20016;-72
2023/05/14 01:04:19;;;;;;;9.90;5.60;;;;;;;;;;5057424;28;20059;-72
2023/05/14 01:06:57;;;;;;;9.77;5.65;;;;;;;;;;5058208;28;20032;-72
2023/05/14 01:09:34;;;;;;;7.90;5.45;;;;;;;;;;5059039;28;20036;-72
2023/05/14 01:12:01;;;;;;;7.40;5.60;;;;;;;;;;5056904;28;20035;-72
2023/05/14 01:14:39;;;;;;;9.70;6.00;;;;;;;;;;5057409;28;20573;-72
2023/05/14 01:17:06;;;;;;;7.65;5.68;;;;;;;;;;5071911;28;20037;-72
2023/05/14 01:19:45;;;;;;;12.18;5.65;;;;;;;;;;5063355;28;20032;-72
2023/05/14 01:22:10;;;;;;;10.55;5.72;;;;;;;;;;5058597;28;20043;-72
2023/05/14 01:24:35;;;;;;;8.70;5.60;;;;;;;;;;5059151;28;20028;-73
2023/05/14 01:27:20;;;;;;;10.68;5.93;;;;;;;;;;5062299;28;20028;-72
2023/05/14 01:29:51;;;;;;;8.13;5.60;;;;;;;;;;5056221;28;20020;-72
2023/05/14 01:32:17;;;;;;;10.63;5.65;;;;;;;;;;5059715;28;20498;-72
2023/05/14 01:34:44;;;;;;;10.35;5.97;;;;;;;;;;5056153;28;20042;-73
2023/05/14 01:37:10;;;;;;;12.35;5.55;;;;;;;;;;5060059;28;20028;-72
2023/05/14 01:39:36;;;;;;;8.98;5.95;;;;;;;;;;5058533;28;20021;-73
2023/05/14 01:42:02;;;;;;;7.75;5.38;;;;;;;;;;5057614;28;20037;-72
2023/05/14 01:44:28;;;;;;;7.05;5.38;;;;;;;;;;5061554;28;20059;-73
2023/05/14 01:46:53;;;;;;;9.13;5.70;;;;;;;;;;5060266;28;20536;-72
2023/05/14 01:49:18;;;;;;;6.35;5.20;;;;;;;;;;5059637;28;20429;-73
2023/05/14 01:51:44;;;;;;;8.20;5.60;;;;;;;;;;5060712;28;20036;-72
2023/05/14 01:54:09;;;;;;;9.10;5.50;;;;;;;;;;5057187;28;20048;-73
2023/05/14 01:56:34;;;;;;;6.90;4.83;;;;;;;;;;5058681;28;20780;-72
2023/05/14 01:58:59;;;;;;;9.15;5.30;;;;;;;;;;5071879;28;20384;-72
2023/05/14 02:01:25;;;;;;;9.45;5.72;;;;;;;;;;5073942;28;20505;-73
2023/05/14 02:03:50;;;;;;;8.75;5.32;;;;;;;;;;5059406;28;20043;-73
2023/05/14 02:06:15;;;;;;;7.72;4.80;;;;;;;;;;5061553;28;20043;-71
2023/05/14 02:08:41;;;;;;;10.97;5.40;;;;;;;;;;5059981;28;21866;-72
2023/05/14 02:11:06;;;;;;;8.20;5.00;;;;;;;;;;5059894;28;20021;-72
2023/05/14 02:13:31;;;;;;;9.53;5.60;;;;;;;;;;5061110;28;20032;-72
2023/05/14 02:15:57;;;;;;;8.47;5.10;;;;;;;;;;5072057;28;20278;-67
2023/05/14 02:18:22;;;;;;;8.13;5.78;;;;;;;;;;5057874;28;20285;-73
2023/05/14 02:20:47;;;;;;;8.53;5.20;;;;;;;;;;5059352;28;20484;-74
2023/05/14 02:23:12;;;;;;;8.63;5.37;;;;;;;;;;5056122;28;20029;-72
2023/05/14 02:25:38;;;;;;;8.25;4.88;;;;;;;;;;5074930;28;20051;-73
2023/05/14 02:28:03;;;;;;;7.68;5.60;;;;;;;;;;5057391;28;20094;-73
2023/05/14 02:30:30;;;;;;;10.73;5.22;;;;;;;;;;5060948;28;20033;-73
2023/05/14 02:32:55;;;;;;;8.70;4.93;;;;;;;;;;5060392;28;20086;-73
2023/05/14 02:35:20;;;;;;;11.17;5.30;;;;;;;;;;5070800;28;20651;-74
2023/05/14 02:37:45;;;;;;;8.90;5.67;;;;;;;;;;5073317;28;20311;-74
2023/05/14 02:40:11;;;;;;;8.50;5.57;;;;;;;;;;5057436;28;20702;-74
2023/05/14 02:42:36;;;;;;;8.18;5.38;;;;;;;;;;5059983;28;20290;-74
2023/05/14 02:45:01;;;;;;;7.83;5.47;;;;;;;;;;5060419;28;20154;-73
2023/05/14 02:47:27;;;;;;;8.18;5.40;;;;;;;;;;5058552;28;20145;-73
2023/05/14 02:49:52;;;;;;;8.60;5.27;;;;;;;;;;5061304;28;20028;-73
2023/05/14 02:52:17;;;;;;;8.23;5.67;;;;;;;;;;5083611;28;20273;-73
2023/05/14 02:54:42;;;;;;;9.67;5.80;;;;;;;;;;5064841;28;20123;-73
2023/05/14 02:57:07;;;;;;;9.23;6.10;;;;;;;;;;5064628;28;20574;-73
2023/05/14 02:59:33;;;;;;;10.73;6.07;;;;;;;;;;5059304;28;20051;-72
2023/05/14 03:01:58;;;;;;;8.97;5.60;;;;;;;;;;5055898;28;20033;-73
2023/05/14 03:04:23;;;;;;;8.83;5.67;;;;;;;;;;5054931;28;20063;-73
2023/05/14 03:06:48;;;;;;;11.07;5.43;;;;;;;;;;5059829;28;20032;-73
2023/05/14 03:09:14;;;;;;;8.50;5.70;;;;;;;;;;5059583;28;20028;-75
2023/05/14 03:11:39;;;;;;;12.40;5.60;;;;;;;;;;5056587;28;20846;-73
2023/05/14 03:14:04;;;;;;;9.97;5.77;;;;;;;;;;5056534;28;20032;-73
2023/05/14 03:16:29;;;;;;;11.60;5.88;;;;;;;;;;5059446;28;20285;-74
2023/05/14 03:18:55;;;;;;;12.30;5.80;;;;;;;;;;5075376;28;20025;-73
2023/05/14 03:21:20;;;;;;;7.07;5.43;;;;;;;;;;5060507;28;20269;-74
2023/05/14 03:23:45;;;;;;;9.00;5.78;;;;;;;;;;5055804;28;20284;-73
2023/05/14 03:26:11;;;;;;;11.60;5.72;;;;;;;;;;5056272;28;20103;-75
2023/05/14 03:28:36;;;;;;;7.53;5.33;;;;;;;;;;5071527;28;20028;-74
2023/05/14 03:31:01;;;;;;;9.33;5.87;;;;;;;;;;5058992;28;20293;-74
2023/05/14 03:33:27;;;;;;;8.77;5.17;;;;;;;;;;5056736;28;20376;-74
2023/05/14 03:35:52;;;;;;;8.15;5.88;;;;;;;;;;5060971;28;20292;-74
2023/05/14 03:38:22;;;;;;;9.68;6.15;;;;;;;;;;5056854;28;20024;-72
2023/05/14 03:40:47;;;;;;;9.77;5.60;;;;;;;;;;5057546;28;20028;-72
2023/05/14 03:43:13;;;;;;;8.87;6.03;;;;;;;;;;5059351;28;20031;-69
2023/05/14 03:45:39;;;;;;;9.35;5.47;;;;;;;;;;5056725;28;20356;-69
2023/05/14 03:48:04;;;;;;;12.27;5.90;;;;;;;;;;5057679;28;20032;-74
2023/05/14 03:50:30;;;;;;;9.10;5.13;;;;;;;;;;5057062;28;20541;-74
2023/05/14 03:52:55;;;;;;;9.38;5.38;;;;;;;;;;5057833;28;20060;-74
2023/05/14 03:55:20;;;;;;;8.68;5.50;;;;;;;;;;5057282;28;20390;-77
2023/05/14 03:57:49;;;;;;;7.70;5.30;;;;;;;;;;5057087;28;20407;-73
2023/05/14 04:00:15;;;;;;;7.25;4.78;;;;;;;;;;5071200;28;20281;-73
2023/05/14 04:02:41;;;;;;;9.68;5.47;;;;;;;;;;5057958;28;20043;-75
2023/05/14 04:05:06;;;;;;;7.82;5.70;;;;;;;;;;5053229;28;20520;-71
2023/05/14 04:07:31;;;;;;;7.13;5.30;;;;;;;;;;5057456;28;20060;-73
2023/05/14 04:09:57;;;;;;;11.63;6.18;;;;;;;;;;5068760;28;20060;-69
2023/05/14 04:12:22;;;;;;;7.60;5.30;;;;;;;;;;5056640;28;20133;-73
2023/05/14 04:14:47;;;;;;;8.57;5.53;;;;;;;;;;5057481;28;20044;-68
2023/05/14 04:17:13;;;;;;;9.85;5.75;;;;;;;;;;5056567;28;20028;-66
2023/05/14 04:19:39;;;;;;;11.40;5.53;;;;;;;10.88;nan;100773.19;5058565;28;20036;-68
2023/05/14 04:22:04;;;;;;;7.30;5.63;;;;;;;;;;5054372;28;20681;-67
2023/05/14 04:24:30;;;;;;;9.07;5.53;;;;;;;;;;5055332;28;20048;-67
2023/05/14 04:26:55;;;;;;;8.53;5.70;;;;;;;;;;5056398;28;20170;-67
2023/05/14 04:29:20;;;;;;;8.10;5.80;;;;;;;;;;5056695;28;20024;-73
2023/05/14 04:31:45;;;;;;;11.38;6.35;;;;;;;;;;5057537;28;20278;-73
2023/05/14 04:34:11;;;;;;;9.30;5.60;;;;;;;;;;5072268;28;20024;-73
2023/05/14 04:36:36;;;;;;;7.68;5.47;;;;;;;;;;5055280;28;20869;-67
2023/05/14 04:39:01;;;;;;;7.93;5.43;;;;;;;;;;5054419;28;20111;-73
2023/05/14 04:41:27;;;;;;;9.98;5.35;;;;;;;;;;5057681;28;20284;-72
2023/05/14 04:43:54;;;;;;;7.90;5.43;;;;;;;;;;5051840;28;20033;-67
2023/05/14 04:46:19;;;;;;;10.43;6.13;;;;;;;;;;5062471;28;20074;-69
2023/05/14 04:48:44;;;;;;;11.32;5.47;;;;;;;;;;5056271;28;20020;-67
2023/05/14 04:51:10;;;;;;;10.63;6.10;;;;;;;;;;5053705;28;20098;-67
2023/05/14 04:53:35;;;;;;;9.45;5.80;;;;;;;;;;5053256;28;20437;-65
2023/05/14 04:56:00;;;;;;;11.23;6.03;;;;;;;;;;5053758;28;20113;-65
2023/05/14 04:58:27;;;;;;;8.77;5.87;;;;;;;;;;5057329;28;20302;-68
2023/05/14 05:00:54;;;;;;;9.77;5.78;;;;;;;;;;5057118;28;20064;-62
2023/05/14 05:03:19;;;;;;;10.77;5.68;;;;;;;;;;5053351;28;20032;-62
2023/05/14 05:05:44;;;;;;;9.38;5.63;;;;;;;;;;5055608;28;20367;-66
2023/05/14 05:08:10;;;;;;;9.73;6.05;;;;;;;;;;5057777;28;20536;-64
2023/05/14 05:10:35;;;;;;;10.75;6.05;;;;;;;;;;5072560;28;20079;-65
2023/05/14 05:13:00;;;;;;;8.83;5.83;;;;;;;;;;5055495;28;20200;-65
2023/05/14 05:15:26;;;;;;;11.27;6.53;;;;;;;;;;5058673;28;20078;-62
2023/05/14 05:17:51;;;;;;;7.13;5.70;;;;;;;;;;5056815;28;20327;-71
2023/05/14 05:20:16;;;;;;;8.47;5.33;;;;;;;;;;5063673;28;20297;-72
2023/05/14 05:22:41;;;;;;;13.95;5.90;;;;;;;;;;5069388;28;20165;-72
2023/05/14 05:25:07;;;;;;;7.60;5.17;;;;;;;;;;5065932;28;20032;-71
2023/05/14 05:27:33;;;;;;;7.85;5.45;;;;;;;;;;5067144;28;20036;-71
2023/05/14 05:30:00;;;;;;;12.27;5.97;;;;;;;;;;5069669;28;20025;-68
2023/05/14 05:32:25;;;;;;;8.98;5.75;;;;;;;;;;5062013;28;20281;-69
2023/05/14 05:34:50;;;;;;;9.57;6.03;;;;;;;;;;5058331;28;20088;-73
2023/05/14 05:37:16;;;;;;;9.70;6.03;;;;;;;;;;5056722;28;20506;-73
2023/05/14 05:39:53;;;;;;;8.57;5.15;;;;;;;;;;5056580;28;20040;-69
2023/05/14 05:42:19;;;;;;;10.93;5.05;;;;;;;;;;5069063;28;20028;-74
2023/05/14 05:44:44;;;;;;;9.23;6.03;;;;;;;;;;5051407;28;20429;-73
2023/05/14 05:47:10;;;;;;;11.60;5.67;;;;;;;;;;5056201;28;20031;-73
2023/05/14 05:49:36;;;;;;;9.40;5.70;;;;;;;;;;5066602;28;20025;-72
2023/05/14 05:52:01;;;;;;;9.05;5.88;;;;;;;;;;5056344;28;20036;-73
2023/05/14 05:54:27;;;;;;;8.48;5.80;;;;;;;;;;5059848;28;20070;-73
2023/05/14 05:56:52;;;;;;;11.20;6.50;;;;;;;;;;5055664;28;20068;-71
2023/05/14 05:59:17;;;;;;;9.27;6.17;;;;;;;;;;5055719;28;20594;-72
2023/05/14 06:01:43;;;;;;;10.20;6.03;;;;;;;;;;5045403;28;20285;-70
2023/05/14 06:04:08;;;;;;;9.90;6.10;;;;;;;;;;5062129;28;20075;-73
2023/05/14 06:06:33;;;;;;;7.75;5.97;;;;;;;;;;5060124;28;20024;-73
2023/05/14 06:09:00;;;;;;;8.82;5.47;;;;;;;;;;5061247;28;20470;-72
2023/05/14 06:11:26;;;;;;;8.07;5.43;;;;;;;;;;5058898;28;20086;-73
2023/05/14 06:13:51;;;;;;;9.45;5.82;;;;;;;;;;5063785;28;20037;-74
2023/05/14 06:16:16;;;;;;;10.77;6.13;;;;;;;;;;5060958;28;20028;-71
2023/05/14 06:18:41;;;;;;;11.80;6.50;;;;;;;;;;5059402;28;21254;-74
2023/05/14 06:21:07;;;;;;;8.83;6.20;;;;;;;;;;5057000;28;20179;-71
2023/05/14 06:23:33;;;;;;;7.88;6.03;;;;;;;;;;5060278;28;20032;-71
2023/05/14 06:25:58;;;;;;;11.20;6.32;;;;;;;;;;5061619;28;20542;-70
2023/05/14 06:28:26;;;;;;;8.70;6.00;;;;;;;;;;5056078;28;20388;-73
2023/05/14 06:30:52;;;;;;;9.93;6.20;;;;;;;;;;5063169;28;20029;-74
2023/05/14 06:33:19;;;;;;;10.43;6.35;;;;;;;;;;5057910;28;20028;-73
2023/05/14 06:35:45;;;;;;;11.85;6.45;;;;;;;;;;5066092;28;20025;-71
2023/05/14 06:38:10;;;;;;;11.30;6.10;;;;;;;;;;5059968;28;20032;-73
2023/05/14 06:40:35;;;;;;;9.17;6.43;;;;;;;;;;5060450;28;20769;-72
2023/05/14 06:43:00;;;;;;;11.23;6.73;;;;;;;;;;5060081;28;20037;-71
2023/05/14 06:45:26;;;;;;;9.57;6.90;;;;;;;;;;5058130;28;20029;-73
2023/05/14 06:47:51;;;;;;;15.20;6.53;;;;;;;;;;5058296;28;20677;-68
2023/05/14 06:50:16;;;;;;;10.27;6.17;;;;;;;;;;5060721;28;20347;-74
2023/05/14 06:52:43;;;;;;;12.55;6.45;;;;;;;;;;5060776;28;20028;-73
2023/05/14 06:55:09;;;;;;;13.07;7.03;;;;;;;;;;5073186;28;20029;-72
2023/05/14 06:57:34;;;;;;;11.35;6.43;;;;;;;;;;5058017;28;20052;-72
2023/05/14 06:59:59;;;;;;;9.50;6.17;;;;;;;;;;5058027;28;20359;-73
2023/05/14 07:02:25;;;;;;;9.63;6.53;;;;;;;;;;5057782;28;20696;-71
2023/05/14 07:04:50;;;;;;;9.00;5.95;;;;;;;;;;5072357;28;20047;-66
2023/05/14 07:07:19;;;;;;;7.57;5.60;;;;;;;;;;5065850;28;20111;-65
2023/05/14 07:09:44;;;;;;;10.35;6.35;;;;;;;;;;5058954;28;20304;-68
2023/05/14 07:12:09;;;;;;;10.23;6.20;;;;;;;;;;5060102;28;20398;-73
2023/05/14 07:14:35;;;;;;;10.90;6.17;;;;;;;;;;5058440;28;20686;-72
2023/05/14 07:17:00;;;;;;;9.47;5.93;;;;;;;;;;5071729;28;20419;-74
2023/05/14 07:19:27;;;;;;;14.60;6.53;;;;;;;;;;5058664;28;20289;-72
2023/05/14 07:21:53;;;;;;;8.65;5.38;;;;;;;;;;5060038;28;20033;-70
2023/05/14 07:24:18;;;;;;;8.32;5.90;;;;;;;;;;5059230;28;20059;-70
2023/05/14 07:26:43;;;;;;;11.95;5.95;;;;;;;;;;5070919;28;20067;-70
2023/05/14 07:29:08;;;;;;;10.13;6.45;;;;;;;;;;5057741;28;20032;-68
2023/05/14 07:31:34;;;;;;;8.52;6.07;;;;;;;;;;5063320;28;20047;-68
2023/05/14 07:33:59;;;;;;;10.00;5.95;;;;;;;;;;5059293;28;20074;-70
2023/05/14 07:36:24;;;;;;;11.52;6.70;;;;;;;;;;5055039;28;20024;-71
2023/05/14 07:38:50;;;;;;;9.50;6.28;;;;;;;;;;5055180;28;20079;-71
2023/05/14 07:41:15;;;;;;;9.00;6.17;;;;;;;;;;5055469;28;20515;-72
2023/05/14 07:43:40;;;;;;;9.68;6.68;;;;;;;;;;5057847;28;20281;-71
2023/05/14 07:46:06;;;;;;;8.38;6.22;;;;;;;;;;5057288;28;20119;-72
2023/05/14 07:48:31;;;;;;;10.40;6.60;;;;;;;;;;5056065;28;20122;-70
2023/05/14 07:50:56;;;;;;;11.40;6.60;;;;;;;;;;5057903;28;20285;-73
2023/05/14 07:53:22;;;;;;;9.37;6.70;;;;;;;;;;5059884;28;20289;-71
2023/05/14 07:55:47;;;;;;;9.10;6.18;;;;;;;;;;5066763;28;20020;-72
2023/05/14 07:58:13;;;;;;;10.75;6.10;;;;;;;;;;5068768;28;20102;-72
2023/05/14 08:00:38;;;;;;;10.23;6.65;;;;;;;;;;5066479;28;20872;-71
2023/05/14 08:03:03;;;;;;;11.17;6.43;;;;;;;;;;5068201;28;20043;-72
2023/05/14 08:05:29;;;;;;;7.97;5.70;;;;;;;;;;5055945;28;20025;-71
2023/05/14 08:07:54;;;;;;;10.65;5.95;;;;;;;;;;5057928;28;20147;-71
2023/05/14 08:10:20;;;;;;;10.23;6.33;;;;;;;;;;5055469;28;20047;-72
2023/05/14 08:12:45;;;;;;;9.70;6.40;;;;;;;;;;5060588;28;20755;-73
2023/05/14 08:15:11;;;;;;;8.60;6.37;;;;;;;;;;5072211;28;20045;-72
2023/05/14 08:17:36;;;;;;;8.60;6.10;;;;;;;;;;5056474;28;20653;-72
2023/05/14 08:20:02;;;;;;;10.53;6.63;;;;;;;12.40;nan;100670.09;5069619;28;20032;-72
2023/05/14 08:22:27;;;;;;;7.03;6.00;;;;;;;;;;5056442;28;20632;-71
2023/05/14 08:24:52;;;;;;;10.00;6.40;;;;;;;;;;5056470;28;20033;-72
2023/05/14 08:27:17;;;;;;;7.33;5.40;;;;;;;;;;5055544;28;20036;-71
2023/05/14 08:29:43;;;;;;;8.13;5.27;;;;;;;;;;5058158;28;20278;-72
2023/05/14 08:32:08;;;;;;;9.40;5.43;;;;;;;;;;5053546;28;20361;-73
2023/05/14 08:34:33;;;;;;;8.57;5.50;;;;;;;;;;5057843;28;20377;-72
2023/05/14 08:36:58;;;;;;;9.52;5.72;;;;;;;;;;5056044;28;20043;-70
2023/05/14 08:39:24;;;;;;;8.80;5.33;;;;;;;;;;5055576;28;20028;-72
2023/05/14 08:41:50;;;;;;;6.80;5.33;;;;;;;;;;5062016;28;20028;-73
2023/05/14 08:44:19;;;;;;;8.50;5.43;;;;;;;;;;5057389;28;20285;-72
2023/05/14 08:46:44;;;;;;;9.50;5.53;;;;;;;;;;5057733;28;20076;-72
2023/05/14 08:49:35;;;;;;;7.85;5.63;;;;;;;;;;5059686;28;20029;-73
2023/05/14 08:52:00;;;;;;;8.30;5.18;;;;;;;;;;5056486;28;20036;-73
2023/05/14 08:54:27;;;;;;;8.63;5.43;;;;;;;;;;5059593;28;20036;-73
2023/05/14 08:56:52;;;;;;;8.85;5.53;;;;;;;;;;5057323;28;20050;-74
2023/05/14 08:59:18;;;;;;;9.15;6.40;;;;;;;;;;5056573;28;20125;-73
2023/05/14 09:01:46;;;;;;;6.45;4.75;;;;;;;;;;5069950;28;20428;-72
2023/05/14 09:04:12;;;;;;;8.52;5.45;;;;;;;;;;5050776;28;20041;-73
2023/05/14 09:06:38;;;;;;;7.25;5.03;;;;;;;;;;5058553;28;20025;-73
2023/05/14 09:09:03;;;;;;;7.10;4.97;;;;;;;;;;5057958;28;20029;-73
2023/05/14 09:11:29;;;;;;;11.10;5.38;;;;;;;;;;5056458;28;20020;-74
2023/05/14 09:13:54;;;;;;;8.02;5.63;;;;;;;;;;5056762;28;20036;-72
2023/05/14 09:16:20;;;;;;;7.22;4.93;;;;;;;;;;5056231;28;20028;-73
2023/05/14 09:18:45;;;;;;;7.88;5.20;;;;;;;;;;5054392;28;20467;-73
2023/05/14 09:21:12;;;;;;;7.95;4.90;;;;;;;;;;5069029;28;20036;-70
2023/05/14 09:23:40;;;;;;;8.82;5.45;;;;;;;;;;5056771;28;20035;-73
2023/05/14 09:26:05;;;;;;;7.60;5.65;;;;;;;;;;5058167;28;20144;-73
2023/05/14 09:28:31;;;;;;;9.02;5.90;;;;;;;;;;5056118;28;20108;-73
2023/05/14 09:30:56;;;;;;;8.73;6.13;;;;;;;;;;5056666;28;20032;-73
2023/05/14 09:33:26;;;;;;;9.75;5.18;;;;;;;;;;5053052;28;20354;-73
2023/05/14 09:35:56;;;;;;;11.25;5.15;;;;;;;13.52;nan;100596.69;5058728;28;20021;-73
2023/05/14 09:38:22;;;;;;;11.02;5.50;;;;;;;;;;5059375;28;20119;-73
2023/05/14 09:40:47;;;;;;;6.55;4.68;;;;;;;;;;5060344;28;20025;-73
2023/05/14 09:43:13;;;;;;;7.50;4.87;;;;;;;;;;5058387;28;20044;-72
2023/05/14 09:45:39;;;;;;;7.23;5.00;;;;;;;;;;5057191;28;20308;-72
2023/05/14 09:48:04;;;;;;;7.65;4.90;;;;;;;;;;5058113;28;20042;-72
2023/05/14 09:50:30;;;;;;;7.82;4.93;;;;;;;;;;5059690;28;20115;-73
2023/05/14 09:52:55;;;;;;;8.75;5.15;;;;;;;;;;5072389;28;20784;-73
2023/05/14 09:55:21;;;;;;;5.70;4.50;;;;;;;;;;5066848;28;20490;-73
2023/05/14 09:57:46;;;;;;;6.82;4.63;;;;;;;13.89;nan;100575.06;5058052;28;20513;-72
2023/05/14 10:00:12;;;;;;;6.40;4.53;;;;;;;;;;5061974;28;20037;-71
2023/05/14 10:02:39;;;;;;;5.57;4.88;;;;;;;;;;5059056;28;20056;-73
2023/05/14 10:05:06;;;;;;;8.05;4.93;;;;;;;;;;5067148;28;20429;-74
2023/05/14 10:07:46;;;;;;;9.02;5.03;;;;;;;;;;5075589;28;20079;-72
2023/05/14 10:10:14;;;;;;;7.40;5.18;;;;;;;;;;5058063;28;20471;-71
2023/05/14 10:12:39;;;;;;;7.85;4.72;;;;;;;;;;5058254;28;20037;-69
2023/05/14 10:15:14;;;;;;;8.63;5.28;;;;;;;;;;5056303;28;20540;-72
2023/05/14 10:17:42;;;;;;;5.65;4.75;;;;;;;;;;5058959;28;20043;-72
2023/05/14 10:20:12;;;;;;;7.38;4.57;;;;;;;;;;5058783;28;20103;-73
2023/05/14 10:22:37;;;;;;;5.63;4.32;;;;;;;;;;5065269;28;20047;-73
2023/05/14 10:25:03;;;;;;;7.25;4.50;;;;;;;;;;5067943;28;20052;-72
2023/05/14 10:27:29;;;;;;;7.50;5.10;;;;;;;;;;5070592;28;20033;-73
2023/05/14 10:29:54;;;;;;;8.95;5.03;;;;;;;;;;5069857;28;20102;-73
2023/05/14 10:32:20;;;;;;;7.40;4.28;;;;;;;;;;5061807;28;20063;-72
2023/05/14 10:34:47;;;;;;;6.82;4.10;;;;;;;;;;5058599;28;20040;-73
2023/05/14 10:37:16;;;;;;;7.80;5.00;;;;;;;;;;5057067;28;20041;-72
2023/05/14 10:39:42;;;;;;;5.63;4.65;;;;;;;;;;5058249;28;20548;-72
2023/05/14 10:42:09;;;;;;;6.82;4.47;;;;;;;;;;5057351;28;20482;-69
2023/05/14 10:44:34;;;;;;;6.43;4.55;;;;;;;;;;5055770;28;20548;-70
2023/05/14 10:47:00;;;;;;;6.53;4.70;;;;;;;;;;5072512;28;20041;-69
2023/05/14 10:49:26;;;;;;;5.45;4.50;;;;;;;;;;5075156;28;20047;-72
2023/05/14 10:51:52;;;;;;;5.95;4.50;;;;;;;;;;5074453;28;20031;-73
2023/05/14 10:54:17;;;;;;;12.13;5.75;;;;;;;;;;5071676;28;20029;-73
2023/05/14 10:56:44;;;;;;;6.47;4.27;;;;;;;;;;5058003;28;20025;-74
2023/05/14 10:59:10;;;;;;;5.88;4.30;;;;;;;;;;5059807;28;20384;-72
2023/05/14 11:01:35;;;;;;;7.90;4.47;;;;;;;;;;5060616;28;20116;-72
2023/05/14 11:04:01;;;;;;;5.75;4.10;;;;;;;;;;5061300;28;20043;-72
2023/05/14 11:06:28;;;;;;;6.18;3.65;;;;;;;;;;5060334;28;20033;-70
2023/05/14 11:08:53;;;;;;;4.60;4.10;;;;;;;;;;5066936;28;20044;-71
2023/05/14 11:11:19;;;;;;;5.55;4.28;;;;;;;;;;5069867;28;20061;-73
2023/05/14 11:13:45;;;;;;;5.85;3.88;;;;;;;;;;5058524;28;20024;-72
2023/05/14 11:16:10;;;;;;;6.32;3.70;;;;;;;;;;5072634;28;20033;-73
2023/05/14 11:18:37;;;;;;;5.55;3.28;;;;;;;;;;5057800;28;20028;-72
2023/05/14 11:21:02;;;;;;;6.85;3.72;;;;;;;;;;5056358;28;20127;-72
2023/05/14 11:23:28;;;;;;;8.18;4.90;;;;;;;;;;5056522;28;20111;-72
2023/05/14 11:25:54;;;;;;;7.47;4.80;;;;;;;;;;5058475;28;20556;-72
2023/05/14 11:28:20;;;;;;;7.68;4.32;;;;;;;;;;5072574;28;20017;-71
2023/05/14 11:30:46;;;;;;;6.82;4.10;;;;;;;;;;5063415;28;20028;-72
2023/05/14 11:33:11;;;;;;;7.05;5.13;;;;;;;;;;5058371;28;20522;-72
2023/05/14 11:35:37;;;;;;;9.17;5.70;;;;;;;;;;5060423;28;20033;-71
2023/05/14 11:38:02;;;;;;;7.15;5.20;;;;;;;;;;5058451;28;20368;-71
2023/05/14 11:40:27;;;;;;;7.83;4.53;;;;;;;;;;5055724;28;20415;-73
2023/05/14 11:42:52;;;;;;;7.50;5.00;;;;;;;;;;5056500;28;20039;-72
2023/05/14 11:45:25;;;;;;;5.93;4.00;;;;;;;;;;5057319;28;20281;-72
2023/05/14 11:47:51;;;;;;;6.85;3.75;;;;;;;;;;5054812;28;20032;-70
2023/05/14 11:50:16;;;;;;;4.95;3.10;;;;;;;;;;5059051;28;20024;-71
2023/05/14 11:52:42;;;;;;;4.68;2.95;;;;;;;;;;5057745;28;20032;-70
2023/05/14 11:55:11;;;;;;;5.93;3.15;;;;;;;;;;5056200;28;20044;-71
2023/05/14 11:57:36;;;;;;;4.57;3.20;;;;;;;;;;5070836;28;20049;-71
2023/05/14 12:00:03;;;;;;;6.27;3.10;;;;;;;;;;5053387;28;20410;-72
2023/05/14 12:02:29;;;;;;;6.38;3.60;;;;;;;;;;5056636;28;20363;-72
2023/05/14 12:04:54;;;;;;;3.70;2.77;;;;;;;;;;5069577;28;20212;-70
2023/05/14 12:07:19;;;;;;;5.17;3.43;;;;;;;;;;5056378;28;20285;-70
2023/05/14 12:09:50;;;;;;;4.25;2.88;;;;;;;;;;5058995;28;20028;-69
2023/05/14 12:12:21;;;;;;;4.28;3.10;;;;;;;;;;5061366;28;20025;-71
2023/05/14 12:14:47;;;;;;;6.35;3.10;;;;;;;;;;5064149;28;20050;-70
2023/05/14 12:17:17;;;;;;;6.30;3.15;;;;;;;;;;5061165;28;20482;-70
2023/05/14 12:19:43;;;;;;;6.65;3.00;;;;;;;;;;5056678;28;20024;-70
2023/05/14 12:22:09;;;;;;;5.25;3.15;;;;;;;;;;5059522;28;20028;-71
2023/05/14 12:24:35;;;;;;;5.35;3.20;;;;;;;;;;5055618;28;20056;-71
2023/05/14 12:27:00;;;;;;;3.92;3.20;;;;;;;;;;5058512;28;20117;-72
2023/05/14 12:29:25;;;;;;;3.38;2.92;;;;;;;;;;5060678;28;20029;-69
2023/05/14 12:31:51;;;;;;;5.33;2.70;;;;;;;;;;5057549;28;20547;-71
2023/05/14 12:34:16;;;;;;;4.13;2.77;;;;;;;;;;5060140;28;20047;-70
2023/05/14 12:36:42;;;;;;;4.77;2.73;;;;;;;;;;5059917;28;20314;-72
2023/05/14 12:39:08;;;;;;;3.60;2.65;;;;;;;;;;5054650;28;20394;-72
2023/05/14 12:41:34;;;;;;;4.20;2.67;;;;;;;;;;5055363;28;20040;-71
2023/05/14 12:43:59;;;;;;;3.95;2.70;;;;;;;;;;5060306;28;20029;-71
2023/05/14 12:46:25;;;;;;;5.80;2.38;;;;;;;;;;5057079;28;20020;-69
2023/05/14 12:48:51;;;;;;;3.85;2.65;;;;;;;;;;5058130;28;20024;-69
2023/05/14 12:51:16;;;;;;;4.20;2.90;;;;;;;;;;5055151;28;20036;-69
2023/05/14 12:53:41;;;;;;;4.70;3.10;;;;;;;;;;5056644;28;20039;-68
2023/05/14 12:56:06;;;;;;;3.17;2.53;;;;;;;;;;5055219;28;20198;-71
2023/05/14 12:58:32;;;;;;;5.27;3.10;;;;;;;;;;5075996;28;20278;-71
2023/05/14 13:00:57;;;;;;;4.80;2.83;;;;;;;;;;5064312;28;20292;-68
2023/05/14 13:03:22;;;;;;;7.07;3.00;;;;;;;;;;5063989;28;20328;-69
2023/05/14 13:05:48;;;;;;;6.07;2.83;;;;;;;;;;5073144;28;20337;-69
2023/05/14 13:08:16;;;;;;;5.00;2.80;;;;;;;;;;5067902;28;20041;-69
2023/05/14 13:10:44;;;;;;;3.30;2.80;;;;;;;;;;5056225;28;20567;-68
2023/05/14 13:13:10;;;;;;;4.20;2.75;;;;;;;;;;5056631;28;20037;-67
2023/05/14 13:15:35;;;;;;;5.85;2.85;;;;;;;;;;5056176;28;20032;-67
2023/05/14 13:18:01;;;;;;;2.87;2.40;;;;;;;;;;5056610;28;20486;-67
2023/05/14 13:20:26;;;;;;;4.28;2.75;;;;;;;;;;5055167;28;20317;-68
2023/05/14 13:22:51;;;;;;;3.65;3.05;;;;;;;;;;5057434;28;20055;-67
2023/05/14 13:25:17;;;;;;;7.13;3.20;;;;;;;;;;5055383;28;20029;-67
2023/05/14 13:27:42;;;;;;;8.18;3.20;;;;;;;;;;5058889;28;20040;-67
2023/05/14 13:30:07;;;;;;;4.77;2.53;;;;;;;;;;5059184;28;20467;-67
2023/05/14 13:32:33;;;;;;;4.07;2.67;;;;;;;;;;5054280;28;20501;-67
2023/05/14 13:34:58;;;;;;;5.87;2.70;;;;;;;;;;5053122;28;20036;-67
2023/05/14 13:37:24;;;;;;;4.43;2.93;;;;;;;;;;5057969;28;20770;-67
2023/05/14 13:39:49;;;;;;;6.35;2.95;;;;;;;;;;5057634;28;20061;-67
2023/05/14 13:42:14;;;;;;;4.00;2.90;;;;;;;;;;5059097;28;20055;-66
2023/05/14 13:44:40;;;;;;;5.97;3.00;;;;;;;;;;5069502;28;21350;-67
2023/05/14 13:47:05;;;;;;;5.83;2.77;;;;;;;;;;5057891;28;20053;-67
2023/05/14 13:49:30;;;;;;;4.47;2.58;;;;;;;;;;5056309;28;20031;-67
2023/05/14 13:51:56;;;;;;;3.53;2.40;;;;;;;;;;5058088;28;20381;-67
2023/05/14 13:54:21;;;;;;;4.83;2.80;;;;;;;;;;5054439;28;20281;-68
2023/05/14 13:56:46;;;;;;;5.83;2.57;;;;;;;;;;5054598;28;20284;-67
2023/05/14 13:59:11;;;;;;;4.37;2.33;;;;;;;;;;5053963;28;20029;-69
2023/05/14 14:01:37;;;;;;;4.38;2.60;;;;;;;;;;5052788;28;20054;-67
2023/05/14 14:04:02;;;;;;;3.90;2.50;;;;;;;;;;5069902;28;20036;-66
2023/05/14 14:06:29;;;;;;;4.37;2.50;;;;;;;;;;5054222;28;20065;-67
2023/05/14 14:08:55;;;;;;;5.68;2.40;;;;;;;;;;5053840;28;20028;-67
2023/05/14 14:11:20;;;;;;;3.85;2.35;;;;;;;;;;5055791;28;20135;-67
2023/05/14 14:13:46;;;;;;;3.28;2.50;;;;;;;;;;5055807;28;20040;-67
2023/05/14 14:16:11;;;;;;;4.65;2.90;;;;;;;;;;5057483;28;20064;-67
2023/05/14 14:18:36;;;;;;;3.67;2.47;;;;;;;;;;5055408;28;20037;-67
2023/05/14 14:21:01;;;;;;;3.47;2.37;;;;;;;;;;5055588;28;20786;-70
2023/05/14 14:23:27;;;;;;;4.70;2.37;;;;;;;;;;5056426;28;20025;-70
2023/05/14 14:25:52;;;;;;;4.83;2.37;;;;;;;;;;5062224;28;20293;-69
2023/05/14 14:28:17;;;;;;;4.23;3.00;;;;;;;;;;5056870;28;20281;-68
2023/05/14 14:30:43;;;;;;;3.15;2.45;;;;;;;;;;5059034;28;20057;-70